Time;durP1;ratioP1;P1;durP2;ratioP2;P2;SDS_P1;SDS_P2;PMS_P1;PMS_P2;Temp;Humidity;BMP_temperature;BMP_pressure;BME280_temperature;BME280_humidity;BME280_pressure;Samples;Min_cycle;Max_cycle;Signal;HPM_P1;HPM_P2
2022/10/28 00:01:33;;;;;;;;;;;;;;;;;;4904551;29;7233;-88
2022/10/28 00:04:00;;;;;;;;;;;;;;;;;;4904834;29;7206;-89
2022/10/28 00:06:28;;;;;;;;;;;;;;;;;;4904572;29;7169;-89
2022/10/28 00:08:55;;;;;;;;;;;;;;;;;;4905040;29;7045;-88
2022/10/28 00:11:25;;;;;;;;;;;;;;;;;;4905077;29;8309;-88
2022/10/28 00:13:55;;;;;;;;;;;;;;;;;;4904694;29;7336;-89
2022/10/28 00:16:26;;;;;;;;;;;;;;;;;;4903841;29;7039;-89
2022/10/28 00:18:52;;;;;;;;;;;;;;;;;;4904324;29;6903;-89
2022/10/28 00:21:20;;;;;;;;;;;;;;;;;;4904187;29;7050;-88
2022/10/28 00:23:46;;;;;;;;;;;;;;;;;;4904744;29;8313;-88
2022/10/28 00:26:18;;;;;;;;;;;;;;;;;;4904139;29;8450;-89
2022/10/28 00:28:46;;;;;;;;;;;;;;;;;;4904723;29;7834;-89
2022/10/28 00:31:12;;;;;;;;;;;;;;;;;;4904707;29;7617;-90
2022/10/28 00:33:38;;;;;;;;;;;;;;;;;;4904478;29;7234;-88
2022/10/28 00:36:11;;;;;;;;;;;;;;;;;;4904673;29;7193;-89
2022/10/28 00:38:37;;;;;;;;;;;;;;;;;;4903429;29;7190;-89
2022/10/28 00:41:03;;;;;;;;;;;;;;;;;;4904222;29;8308;-88
2022/10/28 00:43:58;;;;;;;;;;;;;;;;;;4904424;29;6996;-89
2022/10/28 00:46:26;;;;;;;;;;;;;;;;;;4887676;29;7207;-90
2022/10/28 00:49:10;;;;;;;;;;;;;;;;;;4919712;29;7153;-89
2022/10/28 00:51:36;;;;;;;;;;;;;;;;;;4919962;29;8410;-91
2022/10/28 00:54:04;;;;;;;;;;;;;;;;;;4903906;29;7050;-91
2022/10/28 00:56:32;;;;;;;;;;;;;;;;;;4904173;29;8547;-90
2022/10/28 00:59:01;;;;;;;;;;;;;;;;;;4903938;29;7184;-87
2022/10/28 01:01:26;;;;;;;;;;;;;;;;;;4903784;29;7052;-90
2022/10/28 01:03:53;;;;;;;;;;;;;;;;;;4903757;29;8488;-90
2022/10/28 01:06:19;;;;;;;;;;;;;;;;;;4903571;29;7037;-91
2022/10/28 01:08:44;;;;;;;;;;;;;;;;;;4903670;29;8368;-90
2022/10/28 01:11:19;;;;;;;;;;;;;;;;;;4903691;29;8270;-90
2022/10/28 01:13:44;;;;;;;;;;;;;;;;;;4932644;29;8302;-90
2022/10/28 01:16:10;;;;;;;;;;;;;;;;;;4937875;29;8388;-87
2022/10/28 01:18:38;;;;;;;;;;;;;;;;;;4937884;29;6995;-88
2022/10/28 01:21:27;;;;;;;;;;;;;;;;;;4938187;29;7101;-88
2022/10/28 01:24:23;;;;;;;;;;;;;;;;;;4922296;29;8740;-88
2022/10/28 01:27:19;;;;;;;;;;;;;;;;;;4922380;29;6829;-88
2022/10/28 01:30:19;;;;;;;;;;;;;;;;;;4922144;29;8318;-88
2022/10/28 01:33:08;;;;;;;;;;;;;;;;;;4843522;29;8392;-88
2022/10/28 01:35:39;;;;;;;;;;;;;;;;;;4906853;29;8441;-88
2022/10/28 01:38:14;;;;;;;;;;;;;;;;;;4937885;29;8398;-88
2022/10/28 01:40:58;;;;;;;;;;;;;;;;;;4921696;29;7050;-89
2022/10/28 01:43:24;;;;;;;;;;;;;;;;;;4953833;28;7560;-91
2022/10/28 01:46:03;;;;;;;;;;;;;;;;;;4953444;28;8588;-88
2022/10/28 01:48:53;;;;;;;;;;;;;;;;;;4922335;29;8280;-88
2022/10/28 01:51:24;;;;;;;;;;;;;;;;;;4922017;29;8656;-90
2022/10/28 01:53:52;;;;;;;;;;;;;;;;;;4922325;29;7172;-89
2022/10/28 01:56:24;;;;;;;;;;;;;;;;;;4921537;29;7319;-86
2022/10/28 01:58:52;;;;;;;;;;;;;;;;;;4922762;29;7510;-90
2022/10/28 02:01:18;;;;;;;;;;;;;;;;;;4921925;29;7127;-89
2022/10/28 02:03:44;;;;;;;;;;;;;;;;;;4921743;29;8323;-89
2022/10/28 02:06:21;;;;;;;;;;;;;;;;;;4921313;29;8391;-89
2022/10/28 02:08:50;;;;;;;;;;;;;;;;;;4922004;29;8497;-88
2022/10/28 02:11:15;;;;;;;;;;;;;;;;;;4953504;28;7427;-88
2022/10/28 02:13:53;;;;;;;;;;;;;;;;;;4953342;28;8634;-90
2022/10/28 02:16:28;;;;;;;;;;;;;;;;;;4952746;28;8322;-88
2022/10/28 02:19:32;;;;;;;;;;;;;;;;;;4921984;29;7059;-88
2022/10/28 02:22:16;;;;;;;;;;;;;;;;;;4879770;29;7031;-90
2022/10/28 02:24:41;;;;;;;;;;;;;;;;;;4863953;29;8428;-89
2022/10/28 02:27:17;;;;;;;;;;;;;;;;;;4863831;29;7059;-90
2022/10/28 02:30:14;;;;;;;;;;;;;;;;;;4895490;29;8415;-89
2022/10/28 02:32:44;;;;;;;;;;;;;;;;;;4844090;29;8859;-91
2022/10/28 02:35:36;;;;;;;;;;;;;;;;;;4895164;29;8434;-89
2022/10/28 02:38:05;;;;;;;;;;;;;;;;;;4843680;29;7053;-89
2022/10/28 02:40:33;;;;;;;;;;;;;;;;;;4869571;29;7182;-90
2022/10/28 02:43:06;;;;;;;;;;;;;;;;;;4853162;29;8448;-89
2022/10/28 02:45:38;;;;;;;;;;;;;;;;;;4869549;29;7541;-89
2022/10/28 02:48:07;;;;;;;;;;;;;;;;;;4870943;29;7276;-90
2022/10/28 02:50:36;;;;;;;;;;;;;;;;;;4869380;29;7243;-88
2022/10/28 02:53:07;;;;;;;;;;;;;;;;;;4894328;29;8393;-89
2022/10/28 02:55:37;;;;;;;;;;;;;;;;;;4891809;29;7265;-89
2022/10/28 02:58:04;;;;;;;;;;;;;;;;;;4890875;29;8498;-89
2022/10/28 03:00:30;;;;;;;;;;;;;;;;;;4891566;29;7395;-89
2022/10/28 03:02:55;;;;;;;;;;;;;;;;;;4893695;29;7431;-89
2022/10/28 03:05:21;;;;;;;;;;;;;;;;;;4890900;29;7053;-90
2022/10/28 03:07:46;;;;;;;;;;;;;;;;;;4891051;29;7037;-90
2022/10/28 03:10:12;;;;;;;;;;;;;;;;;;4884597;29;8851;-88
2022/10/28 03:12:37;;;;;;;;;;;;;;;;;;4883129;29;8637;-88
2022/10/28 03:15:03;;;;;;;;;;;;;;;;;;4882879;29;8667;-89
2022/10/28 03:17:29;;;;;;;;;;;;;;;;;;4882885;29;7056;-89
2022/10/28 03:19:55;;;;;;;;;;;;;;;;;;4883067;29;7144;-89
2022/10/28 03:22:20;;;;;;;;;;;;;;;;;;4882888;29;7352;-89
2022/10/28 03:24:46;;;;;;;;;;;;;;;;;;4882918;29;7046;-90
2022/10/28 03:27:11;;;;;;;;;;;;;;;;;;4882950;29;7097;-91
2022/10/28 03:29:37;;;;;;;;;;;;;;;;;;4883366;29;7245;-90
2022/10/28 03:32:03;;;;;;;;;;;;;;;;;;4883133;29;7523;-91
2022/10/28 03:34:28;;;;;;;;;;;;;;;;;;4882993;29;7083;-89
2022/10/28 03:36:54;;;;;;;;;;;;;;;;;;4882868;29;7102;-90
2022/10/28 03:39:19;;;;;;;;;;;;;;;;;;4895205;29;7263;-89
2022/10/28 03:41:45;;;;;;;;;;;;;;;;;;4901629;29;7020;-89
2022/10/28 03:44:10;;;;;;;;;;;;;;;;;;4901980;29;7226;-89
2022/10/28 03:46:36;;;;;;;;;;;;;;;;;;4901455;29;8697;-90
2022/10/28 03:49:01;;;;;;;;;;;;;;;;;;4901591;29;8291;-91
2022/10/28 03:51:27;;;;;;;;;;;;;;;;;;4901025;29;8301;-90
2022/10/28 03:53:53;;;;;;;;;;;;;;;;;;4901397;29;7235;-90
2022/10/28 03:56:18;;;;;;;;;;;;;;;;;;4901464;29;6832;-90
2022/10/28 03:58:46;;;;;;;;;;;;;;;;;;4901393;29;7035;-90
2022/10/28 04:01:12;;;;;;;;;;;;;;;;;;4900889;29;7055;-88
2022/10/28 04:03:37;;;;;;;;;;;;;;;;;;4935781;29;6845;-89
2022/10/28 04:06:03;;;;;;;;;;;;;;;;;;4939453;29;7001;-90
2022/10/28 04:08:28;;;;;;;;;;;;;;;;;;4939129;29;8443;-88
2022/10/28 04:10:54;;;;;;;;;;;;;;;;;;4938921;29;8358;-87
2022/10/28 04:13:19;;;;;;;;;;;;;;;;;;4937172;29;7148;-88
2022/10/28 04:15:45;;;;;;;;;;;;;;;;;;4930090;29;7086;-87
2022/10/28 04:18:11;;;;;;;;;;;;;;;;;;4929298;29;7028;-89
2022/10/28 04:20:37;;;;;;;;;;;;;;;;;;4932363;29;7280;-89
2022/10/28 04:23:02;;;;;;;;;;;;;;;;;;4930015;29;8329;-87
2022/10/28 04:25:28;;;;;;;;;;;;;;;;;;4928976;29;7141;-88
2022/10/28 04:27:53;;;;;;;;;;;;;;;;;;4929184;29;7053;-89
2022/10/28 04:30:19;;;;;;;;;;;;;;;;;;4953181;28;7023;-86
2022/10/28 04:32:44;;;;;;;;;;;;;;;;;;4925586;29;8414;-86
2022/10/28 04:35:11;;;;;;;;;;;;;;;;;;4933412;29;8426;-87
2022/10/28 04:37:37;;;;;;;;;;;;;;;;;;4927961;29;7315;-87
2022/10/28 04:40:04;;;;;;;;;;;;;;;;;;4908975;29;7053;-87
2022/10/28 04:42:29;;;;;;;;;;;;;;;;;;4913847;29;7416;-88
2022/10/28 04:44:54;;;;;;;;;;;;;;;;;;4908177;29;8658;-88
2022/10/28 04:47:20;;;;;;;;;;;;;;;;;;4904528;29;8684;-88
2022/10/28 04:49:45;;;;;;;;;;;;;;;;;;4910479;29;6999;-88
2022/10/28 04:52:11;;;;;;;;;;;;;;;;;;4915543;29;8404;-90
2022/10/28 04:54:37;;;;;;;;;;;;;;;;;;4911824;29;7035;-88
2022/10/28 04:57:02;;;;;;;;;;;;;;;;;;4914685;29;7135;-89
2022/10/28 04:59:28;;;;;;;;;;;;;;;;;;4907500;29;7027;-90
2022/10/28 05:01:53;;;;;;;;;;;;;;;;;;4911059;29;8397;-87
2022/10/28 05:04:19;;;;;;;;;;;;;;;;;;4910906;29;7188;-90
2022/10/28 05:06:44;;;;;;;;;;;;;;;;;;4910668;29;7158;-88
2022/10/28 05:09:10;;;;;;;;;;;;;;;;;;4910853;29;8599;-89
2022/10/28 05:11:36;;;;;;;;;;;;;;;;;;4913927;29;8306;-89
2022/10/28 05:14:01;;;;;;;;;;;;;;;;;;4918949;29;7388;-88
2022/10/28 05:16:27;;;;;;;;;;;;;;;;;;4919087;29;7186;-89
2022/10/28 05:18:52;;;;;;;;;;;;;;;;;;4918952;29;7064;-89
2022/10/28 05:21:18;;;;;;;;;;;;;;;;;;4919034;29;8288;-89
2022/10/28 05:23:44;;;;;;;;;;;;;;;;;;4918924;29;8723;-85
2022/10/28 05:26:09;;;;;;;;;;;;;;;;;;4918693;29;8269;-85
2022/10/28 05:28:35;;;;;;;;;;;;;;;;;;4917955;29;8324;-85
2022/10/28 05:31:00;;;;;;;;;;;;;;;;;;4900012;29;7182;-87
2022/10/28 05:33:26;;;;;;;;;;;;;;;;;;4911615;29;7405;-87
2022/10/28 05:35:51;;;;;;;;;;;;;;;;;;4902564;29;7025;-87
2022/10/28 05:38:17;;;;;;;;;;;;;;;;;;4904672;29;7023;-87
2022/10/28 05:40:42;;;;;;;;;;;;;;;;;;4918751;29;7042;-88
2022/10/28 05:43:09;;;;;;;;;;;;;;;;;;4917695;29;7026;-88
2022/10/28 05:45:35;;;;;;;;;;;;;;;;;;4918683;29;7038;-87
2022/10/28 05:48:01;;;;;;;;;;;;;;;;;;4918487;29;7229;-86
2022/10/28 05:50:27;;;;;;;;;;;;;;;;;;4918446;29;8476;-83
2022/10/28 05:52:54;;;;;;;;;;;;;;;;;;4918222;29;7268;-86
2022/10/28 05:55:21;;;;;;;;;;;;;;;;;;4918079;29;7179;-82
2022/10/28 05:57:48;;;;;;;;;;;;;;;;;;4917767;29;8918;-86
2022/10/28 06:00:15;;;;;;;;;;;;;;;;;;4918350;29;7283;-87
2022/10/28 06:02:41;;;;;;;;;;;;;;;;;;4918590;29;8425;-84
2022/10/28 06:05:07;;;;;;;;;;;;;;;;;;4918156;29;8436;-86
2022/10/28 06:07:33;;;;;;;;;;;;;;;;;;4918098;29;7031;-87
2022/10/28 06:09:59;;;;;;;;;;;;;;;;;;4917957;29;8358;-88
2022/10/28 06:12:25;;;;;;;;;;;;;;;;;;4917825;29;7117;-88
2022/10/28 06:14:50;;;;;;;;;;;;;;;;;;4917770;29;7043;-88
2022/10/28 06:17:16;;;;;;;;;;;;;;;;;;4917946;29;8726;-88
2022/10/28 06:19:41;;;;;;;;;;;;;;;;;;4918144;29;8636;-87
2022/10/28 06:22:07;;;;;;;;;;;;;;;;;;4917905;29;8670;-88
2022/10/28 06:24:32;;;;;;;;;;;;;;;;;;4916512;29;7103;-86
2022/10/28 06:26:57;;;;;;;;;;;;;;;;;;4915925;29;8310;-87
2022/10/28 06:29:23;;;;;;;;;;;;;;;;;;4916979;29;7045;-88
2022/10/28 06:31:49;;;;;;;;;;;;;;;;;;4917591;29;7172;-83
2022/10/28 06:34:14;;;;;;;;;;;;;;;;;;4917110;29;8794;-86
2022/10/28 06:36:40;;;;;;;;;;;;;;;;;;4927423;29;7259;-85
2022/10/28 06:39:06;;;;;;;;;;;;;;;;;;4924469;29;7114;-87
2022/10/28 06:41:31;;;;;;;;;;;;;;;;;;4920865;29;7035;-86
2022/10/28 06:43:56;;;;;;;;;;;;;;;;;;4920559;29;6946;-87
2022/10/28 06:46:22;;;;;;;;;;;;;;;;;;4919544;29;8467;-86
2022/10/28 06:48:48;;;;;;;;;;;;;;;;;;4920573;29;7075;-88
2022/10/28 06:51:15;;;;;;;;;;;;;;;;;;4920643;29;8361;-88
2022/10/28 06:53:41;;;;;;;;;;;;;;;;;;4921028;29;7022;-87
2022/10/28 06:56:08;;;;;;;;;;;;;;;;;;4920141;29;7026;-88
2022/10/28 06:58:33;;;;;;;;;;;;;;;;;;4920321;29;6834;-87
2022/10/28 07:01:03;;;;;;;;;;;;;;;;;;4920263;29;8335;-86
2022/10/28 07:03:29;;;;;;;;;;;;;;;;;;4920375;29;8283;-87
2022/10/28 07:05:54;;;;;;;;;;;;;;;;;;4919780;29;8303;-87
2022/10/28 07:08:20;;;;;;;;;;;;;;;;;;4920504;29;7023;-87
2022/10/28 07:10:55;;;;;;;;;;;;;;;;;;4922759;29;7049;-85
2022/10/28 07:13:20;;;;;;;;;;;;;;;;;;4920527;29;6909;-86
2022/10/28 07:15:49;;;;;;;;;;;;;;;;;;4921062;29;8318;-88
2022/10/28 07:18:15;;;;;;;;;;;;;;;;;;4920138;29;7038;-89
2022/10/28 07:20:40;;;;;;;;;;;;;;;;;;4920356;29;7046;-89
2022/10/28 07:23:07;;;;;;;;;;;;;;;;;;4920316;29;8397;-88
2022/10/28 07:25:33;;;;;;;;;;;;;;;;;;4920142;29;7340;-88
2022/10/28 07:27:59;;;;;;;;;;;;;;;;;;4919904;29;7086;-88
2022/10/28 07:30:25;;;;;;;;;;;;;;;;;;4919615;29;8584;-87
2022/10/28 07:32:51;;;;;;;;;;;;;;;;;;4919939;29;7275;-86
2022/10/28 07:35:17;;;;;;;;;;;;;;;;;;4920081;29;7128;-88
2022/10/28 07:37:42;;;;;;;;;;;;;;;;;;4918384;29;9220;-87
2022/10/28 07:40:08;;;;;;;;;;;;;;;;;;4919703;29;6842;-88
2022/10/28 07:42:33;;;;;;;;;;;;;;;;;;4917914;29;7147;-88
2022/10/28 07:44:59;;;;;;;;;;;;;;;;;;4919214;29;7018;-87
2022/10/28 07:47:25;;;;;;;;;;;;;;;;;;4920758;28;8599;-86
2022/10/28 07:49:53;;;;;;;;;;;;;;;;;;4923321;29;8283;-88
2022/10/28 07:52:19;;;;;;;;;;;;;;;;;;4923821;29;7031;-88
2022/10/28 07:54:45;;;;;;;;;;;;;;;;;;4922747;29;7141;-86
2022/10/28 07:57:11;;;;;;;;;;;;;;;;;;4922681;29;7175;-87
2022/10/28 07:59:37;;;;;;;;;;;;;;;;;;4922852;29;6835;-86
2022/10/28 08:02:03;;;;;;;;;;;;;;;;;;4929498;28;7106;-87
2022/10/28 08:04:30;;;;;;;;;;;;;;;;;;4941826;28;7218;-87
2022/10/28 08:06:55;;;;;;;;;;;;;;;;;;4942146;28;7187;-87
2022/10/28 08:09:21;;;;;;;;;;;;;;;;;;4941763;28;7205;-88
2022/10/28 08:11:46;;;;;;;;;;;;;;;;;;4937512;29;7412;-87
2022/10/28 08:14:11;;;;;;;;;;;;;;;;;;4922744;29;8662;-87
2022/10/28 08:16:37;;;;;;;;;;;;;;;;;;4922309;29;7201;-87
2022/10/28 08:19:02;;;;;;;;;;;;;;;;;;4923597;29;7049;-86
2022/10/28 08:21:28;;;;;;;;;;;;;;;;;;4922902;29;8401;-87
2022/10/28 08:23:54;;;;;;;;;;;;;;;;;;4922899;29;7018;-86
2022/10/28 08:26:19;;;;;;;;;;;;;;;;;;4922676;29;7185;-87
2022/10/28 08:28:45;;;;;;;;;;;;;;;;;;4923236;29;7031;-86
2022/10/28 08:31:13;;;;;;;;;;;;;;;;;;4923146;29;8421;-86
2022/10/28 08:33:41;;;;;;;;;;;;;;;;;;4922774;29;8432;-89
2022/10/28 08:36:08;;;;;;;;;;;;;;;;;;4922461;29;7026;-88
2022/10/28 08:38:33;;;;;;;;;;;;;;;;;;4922691;29;7210;-88
2022/10/28 08:41:26;;;;;;;;;;;;;;;;;;4954509;28;7117;-88
2022/10/28 08:43:54;;;;;;;;;;;;;;;;;;4954744;28;6831;-85
2022/10/28 08:46:30;;;;;;;;;;;;;;;;;;4937650;29;8395;-87
2022/10/28 08:48:56;;;;;;;;;;;;;;;;;;4954417;28;8486;-88
2022/10/28 08:51:29;;;;;;;;;;;;;;;;;;4938624;29;7031;-89
2022/10/28 08:54:02;;;;;;;;;;;;;;;;;;4954764;28;8628;-88
2022/10/28 08:56:38;;;;;;;;;;;;;;;;;;4954121;28;8413;-87
2022/10/28 08:59:08;;;;;;;;;;;;;;;;;;4954228;28;8418;-87
2022/10/28 09:01:40;;;;;;;;;;;;;;;;;;4953807;28;8437;-86
2022/10/28 09:04:15;;;;;;;;;;;;;;;;;;4933878;29;7394;-88
2022/10/28 09:06:41;;;;;;;;;;;;;;;;;;4919162;29;7075;-87
2022/10/28 09:09:16;;;;;;;;;;;;;;;;;;4918499;29;8401;-89
2022/10/28 09:11:44;;;;;;;;;;;;;;;;;;4919047;29;8429;-89
2022/10/28 09:14:13;;;;;;;;;;;;;;;;;;4903208;29;8681;-87
2022/10/28 09:16:54;;;;;;;;;;;;;;;;;;4902387;29;7975;-88
2022/10/28 09:19:35;;;;;;;;;;;;;;;;;;4916862;29;7448;-86
2022/10/28 09:22:01;;;;;;;;;;;;;;;;;;4934566;29;8349;-86
2022/10/28 09:24:38;;;;;;;;;;;;;;;;;;4933962;29;7083;-87
2022/10/28 09:27:03;;;;;;;;;;;;;;;;;;4902558;29;8427;-87
2022/10/28 09:29:47;;;;;;;;;;;;;;;;;;4933921;29;8448;-86
2022/10/28 09:32:15;;;;;;;;;;;;;;;;;;4902245;29;7386;-87
2022/10/28 09:34:59;;;;;;;;;;;;;;;;;;4933287;29;8729;-84
2022/10/28 09:37:32;;;;;;;;;;;;;;;;;;4935759;29;8327;-86
2022/10/28 09:40:13;;;;;;;;;;;;;;;;;;4952369;28;8618;-86
2022/10/28 09:42:42;;;;;;;;;;;;;;;;;;4932674;28;8342;-87
2022/10/28 09:45:16;;;;;;;;;;;;;;;;;;4935268;29;8548;-87
2022/10/28 09:47:47;;;;;;;;;;;;;;;;;;4936947;29;8471;-86
2022/10/28 09:50:16;;;;;;;;;;;;;;;;;;4937449;28;8837;-89
2022/10/28 09:53:00;;;;;;;;;;;;;;;;;;4941123;28;7205;-89
2022/10/28 09:55:26;;;;;;;;;;;;;;;;;;4970734;28;7456;-88
2022/10/28 09:57:51;;;;;;;;;;;;;;;;;;4940001;28;6834;-88
2022/10/28 10:00:17;;;;;;;;;;;;;;;;;;4939631;28;8352;-89
2022/10/28 10:02:43;;;;;;;;;;;;;;;;;;4938169;28;8957;-87
2022/10/28 10:05:13;;;;;;;;;;;;;;;;;;4938585;28;7124;-89
2022/10/28 10:07:45;;;;;;;;;;;;;;;;;;4938272;28;8467;-86
2022/10/28 10:10:14;;;;;;;;;;;;;;;;;;4909305;29;8712;-88
2022/10/28 10:12:40;;;;;;;;;;;;;;;;;;4907128;29;7024;-84
2022/10/28 10:15:12;;;;;;;;;;;;;;;;;;4919509;29;8437;-88
2022/10/28 10:17:44;;;;;;;;;;;;;;;;;;4916336;28;7238;-88
2022/10/28 10:20:12;;;;;;;;;;;;;;;;;;4918762;29;8754;-86
2022/10/28 10:22:38;;;;;;;;;;;;;;;;;;4937761;28;8461;-87
2022/10/28 10:25:16;;;;;;;;;;;;;;;;;;4938580;28;8653;-88
2022/10/28 10:27:48;;;;;;;;;;;;;;;;;;4943098;28;7264;-88
2022/10/28 10:30:19;;;;;;;;;;;;;;;;;;4916645;29;8678;-89
2022/10/28 10:32:47;;;;;;;;;;;;;;;;;;4936001;28;8455;-84
2022/10/28 10:35:12;;;;;;;;;;;;;;;;;;4933296;28;8429;-84
2022/10/28 10:37:42;;;;;;;;;;;;;;;;;;4924019;28;8524;-84
2022/10/28 10:40:23;;;;;;;;;;;;;;;;;;4900650;29;8846;-84
2022/10/28 10:42:50;;;;;;;;;;;;;;;;;;4900557;29;6870;-84
2022/10/28 10:45:15;;;;;;;;;;;;;;;;;;4900172;29;8530;-88
2022/10/28 10:47:41;;;;;;;;;;;;;;;;;;4932022;29;8441;-89
2022/10/28 10:50:32;;;;;;;;;;;;;;;;;;4900090;29;7176;-90
2022/10/28 10:53:00;;;;;;;;;;;;;;;;;;4899635;29;8544;-88
2022/10/28 10:55:25;;;;;;;;;;;;;;;;;;4901747;29;7303;-89
2022/10/28 10:57:51;;;;;;;;;;;;;;;;;;4934452;29;7055;-86
2022/10/28 11:00:21;;;;;;;;;;;;;;;;;;4906439;29;8685;-89
2022/10/28 11:02:47;;;;;;;;;;;;;;;;;;4901381;29;8860;-81
2022/10/28 11:05:19;;;;;;;;;;;;;;;;;;4912734;29;7445;-83
2022/10/28 11:07:48;;;;;;;;;;;;;;;;;;4908418;29;8667;-89
2022/10/28 11:10:26;;;;;;;;;;;;;;;;;;4901162;29;7175;-89
2022/10/28 11:13:00;;;;;;;;;;;;;;;;;;4901236;29;7042;-90
2022/10/28 11:15:28;;;;;;;;;;;;;;;;;;4900258;29;8784;-90
2022/10/28 11:17:59;;;;;;;;;;;;;;;;;;4901179;29;8448;-86
2022/10/28 11:20:30;;;;;;;;;;;;;;;;;;4901099;29;8502;-86
2022/10/28 11:23:14;;;;;;;;;;;;;;;;;;4904860;29;7282;-89
2022/10/28 11:25:46;;;;;;;;;;;;;;;;;;4936179;29;8890;-88
2022/10/28 11:28:23;;;;;;;;;;;;;;;;;;4905091;29;8555;-86
2022/10/28 11:31:06;;;;;;;;;;;;;;;;;;4948485;28;7297;-84
2022/10/28 11:33:46;;;;;;;;;;;;;;;;;;4921718;29;9752;-88
2022/10/28 11:36:19;;;;;;;;;;;;;;;;;;4923164;29;7126;-88
2022/10/28 11:38:44;;;;;;;;;;;;;;;;;;4923181;29;9034;-88
2022/10/28 11:41:33;;;;;;;;;;;;;;;;;;4939722;29;8429;-89
2022/10/28 11:43:59;;;;;;;;;;;;;;;;;;4915116;29;8771;-88
2022/10/28 11:46:40;;;;;;;;;;;;;;;;;;4923860;29;7135;-89
2022/10/28 11:49:20;;;;;;;;;;;;;;;;;;4938923;29;8382;-89
2022/10/28 11:52:01;;;;;;;;;;;;;;;;;;4924220;29;7077;-88
2022/10/28 11:54:45;;;;;;;;;;;;;;;;;;4941282;29;8458;-89
2022/10/28 11:57:17;;;;;;;;;;;;;;;;;;4940885;29;7109;-88
2022/10/28 12:00:01;;;;;;;;;;;;;;;;;;4939729;29;8340;-89
2022/10/28 12:02:36;;;;;;;;;;;;;;;;;;4939561;29;8487;-92
2022/10/28 12:05:13;;;;;;;;;;;;;;;;;;4947949;29;8384;-88
2022/10/28 12:07:53;;;;;;;;;;;;;;;;;;4939975;29;7015;-89
2022/10/28 12:10:34;;;;;;;;;;;;;;;;;;4936617;29;7080;-90
2022/10/28 12:12:59;;;;;;;;;;;;;;;;;;4913481;29;8778;-88
2022/10/28 12:15:40;;;;;;;;;;;;;;;;;;4919751;29;8861;-88
2022/10/28 12:18:24;;;;;;;;;;;;;;;;;;4906300;29;7084;-89
2022/10/28 12:21:08;;;;;;;;;;;;;;;;;;4920787;29;7206;-89
2022/10/28 12:23:37;;;;;;;;;;;;;;;;;;4920316;29;8614;-89
2022/10/28 12:26:06;;;;;;;;;;;;;;;;;;4916704;29;8455;-88
2022/10/28 12:28:55;;;;;;;;;;;;;;;;;;4953330;28;8772;-87
2022/10/28 12:31:47;;;;;;;;;;;;;;;;;;4930422;29;8617;-89
2022/10/28 12:34:17;;;;;;;;;;;;;;;;;;4935177;29;8755;-88
2022/10/28 12:36:50;;;;;;;;;;;;;;;;;;4938736;29;7094;-82
2022/10/28 12:39:19;;;;;;;;;;;;;;;;;;4938235;29;7218;-87
2022/10/28 12:41:59;;;;;;;;;;;;;;;;;;4921565;29;8447;-83
2022/10/28 12:44:30;;;;;;;;;;;;;;;;;;4906912;29;7060;-83
2022/10/28 12:47:07;;;;;;;;;;;;;;;;;;4933993;29;6928;-82
2022/10/28 12:49:54;;;;;;;;;;;;;;;;;;4914643;29;7083;-81
2022/10/28 12:52:37;;;;;;;;;;;;;;;;;;4933279;29;7457;-74
2022/10/28 12:55:29;;;;;;;;;;;;;;;;;;4905945;29;7063;-80
2022/10/28 12:58:04;;;;;;;;;;;;;;;;;;4911386;29;6954;-79
2022/10/28 13:00:58;;;;;;;;;;;;;;;;;;4909088;29;6941;-84
2022/10/28 13:09:59;;;;;;;;;;;;;;;;;;4913537;29;6921;-81
2022/10/28 13:12:47;;;;;;;;;;;;;;;;;;4913320;29;6981;-84
2022/10/28 13:15:44;;;;;;;;;;;;;;;;;;4909523;29;7087;-81
2022/10/28 13:18:39;;;;;;;;;;;;;;;;;;4908557;29;8520;-84
2022/10/28 13:24:31;;;;;;;;;;;;;;;;;;4886173;29;7183;-87
2022/10/28 13:26:57;;;;;;;;;;;;;;;;;;4852353;29;8444;-88
2022/10/28 13:29:22;;;;;;;;;;;;;;;;;;4868197;29;6865;-82
2022/10/28 13:31:48;;;;;;;;;;;;;;;;;;4887199;29;6867;-85
2022/10/28 13:34:17;;;;;;;;;;;;;;;;;;4869514;29;8375;-86
2022/10/28 13:36:46;;;;;;;;;;;;;;;;;;4863903;29;7095;-88
2022/10/28 13:39:38;;;;;;;;;;;;;;;;;;4874441;29;8477;-89
2022/10/28 13:42:13;;;;;;;;;;;;;;;;;;4889312;29;7154;-85
2022/10/28 13:44:49;;;;;;;;;;;;;;;;;;4880185;29;9095;-82
2022/10/28 13:47:44;;;;;;;;;;;;;;;;;;4885672;29;7050;-82
2022/10/28 13:50:13;;;;;;;;;;;;;;;;;;4891217;29;6868;-85
2022/10/28 13:52:41;;;;;;;;;;;;;;;;;;4885761;29;6867;-85
2022/10/28 13:55:26;;;;;;;;;;;;;;;;;;4884286;29;8394;-86
2022/10/28 13:58:09;;;;;;;;;;;;;;;;;;4892235;29;6961;-87
2022/10/28 14:00:36;;;;;;;;;;;;;;;;;;4903260;29;6883;-83
2022/10/28 14:03:28;;;;;;;;;;;;;;;;;;4907476;29;7161;-82
2022/10/28 14:06:02;;;;;;;;;;;;;;;;;;4892407;29;8641;-83
2022/10/28 14:08:41;;;;;;;;;;;;;;;;;;4910578;29;6883;-84
2022/10/28 14:11:22;;;;;;;;;;;;;;;;;;4905267;29;6985;-86
2022/10/28 14:13:51;;;;;;;;;;;;;;;;;;4904918;29;7013;-87
2022/10/28 14:16:23;;;;;;;;;;;;;;;;;;4890999;29;7129;-87
2022/10/28 14:18:56;;;;;;;;;;;;;;;;;;4903906;29;7022;-85
2022/10/28 14:21:22;;;;;;;;;;;;;;;;;;4918917;29;6911;-87
2022/10/28 14:23:49;;;;;;;;;;;;;;;;;;4921934;29;6913;-83
2022/10/28 14:26:18;;;;;;;;;;;;;;;;;;4907821;29;8356;-82
2022/10/28 14:28:51;;;;;;;;;;;;;;;;;;4946064;29;6977;-85
2022/10/28 14:31:19;;;;;;;;;;;;;;;;;;4906217;29;7116;-85
2022/10/28 14:33:54;;;;;;;;;;;;;;;;;;4918003;29;7105;-87
2022/10/28 14:36:19;;;;;;;;;;;;;;;;;;4939160;29;7208;-88
2022/10/28 14:39:04;;;;;;;;;;;;;;;;;;4926134;29;6847;-83
2022/10/28 14:41:29;;;;;;;;;;;;;;;;;;4946668;28;8605;-87
2022/10/28 14:44:03;;;;;;;;;;;;;;;;;;4932916;29;8775;-84
2022/10/28 14:46:32;;;;;;;;;;;;;;;;;;4903763;29;6881;-82
2022/10/28 14:49:02;;;;;;;;;;;;;;;;;;4938141;29;7089;-83
2022/10/28 14:51:36;;;;;;;;;;;;;;;;;;4916010;29;7385;-87
2022/10/28 14:54:07;;;;;;;;;;;;;;;;;;4902062;29;7155;-87
2022/10/28 14:56:32;;;;;;;;;;;;;;;;;;4901430;29;8565;-87
2022/10/28 14:59:10;;;;;;;;;;;;;;;;;;4933049;29;8442;-84
2022/10/28 15:01:53;;;;;;;;;;;;;;;;;;4937168;29;6900;-89
2022/10/28 15:04:19;;;;;;;;;;;;;;;;;;4939759;29;7208;-81
2022/10/28 15:06:46;;;;;;;;;;;;;;;;;;4942185;29;8404;-86
2022/10/28 15:09:18;;;;;;;;;;;;;;;;;;4937460;29;7394;-81
2022/10/28 15:11:49;;;;;;;;;;;;;;;;;;4934970;29;7189;-83
2022/10/28 15:14:49;;;;;;;;;;;;;;;;;;4930332;29;7109;-84
2022/10/28 15:17:22;;;;;;;;;;;;;;;;;;4877348;29;7092;-81
2022/10/28 15:19:52;;;;;;;;;;;;;;;;;;4941388;29;7140;-81
2022/10/28 15:22:18;;;;;;;;;;;;;;;;;;4926766;29;8395;-86
2022/10/28 15:24:52;;;;;;;;;;;;;;;;;;4916844;29;8536;-86
2022/10/28 15:27:19;;;;;;;;;;;;;;;;;;4912047;29;7148;-89
2022/10/28 15:29:46;;;;;;;;;;;;;;;;;;4916248;29;7040;-84
2022/10/28 15:32:15;;;;;;;;;;;;;;;;;;4916068;29;8769;-85
2022/10/28 15:34:40;;;;;;;;;;;;;;;;;;4914498;29;7133;-89
2022/10/28 15:37:07;;;;;;;;;;;;;;;;;;4913307;29;7466;-87
2022/10/28 15:39:33;;;;;;;;;;;;;;;;;;4925535;29;7202;-87
2022/10/28 15:42:01;;;;;;;;;;;;;;;;;;4916637;29;8748;-87
2022/10/28 15:44:37;;;;;;;;;;;;;;;;;;4935860;28;7266;-83
2022/10/28 15:47:18;;;;;;;;;;;;;;;;;;4922091;29;6957;-85
2022/10/28 15:49:56;;;;;;;;;;;;;;;;;;4928404;29;8529;-81
2022/10/28 15:52:31;;;;;;;;;;;;;;;;;;4938749;29;7200;-82
2022/10/28 15:54:57;;;;;;;;;;;;;;;;;;4937714;29;7326;-81
2022/10/28 15:57:25;;;;;;;;;;;;;;;;;;4924337;29;7280;-84
2022/10/28 16:00:09;;;;;;;;;;;;;;;;;;4927670;29;8440;-88
2022/10/28 16:02:39;;;;;;;;;;;;;;;;;;4933122;29;8549;-83
2022/10/28 16:05:25;;;;;;;;;;;;;;;;;;4923738;29;7047;-86
2022/10/28 16:07:50;;;;;;;;;;;;;;;;;;4922265;29;6842;-86
2022/10/28 16:10:15;;;;;;;;;;;;;;;;;;4921282;29;6868;-82
2022/10/28 16:12:44;;;;;;;;;;;;;;;;;;4919938;29;7084;-84
2022/10/28 16:15:15;;;;;;;;;;;;;;;;;;4926991;29;8755;-85
2022/10/28 16:17:42;;;;;;;;;;;;;;;;;;4925031;29;7235;-85
2022/10/28 16:20:18;;;;;;;;;;;;;;;;;;4922991;29;7515;-83
2022/10/28 16:22:44;;;;;;;;;;;;;;;;;;4922772;29;8455;-89
2022/10/28 16:25:14;;;;;;;;;;;;;;;;;;4920800;29;7489;-85
2022/10/28 16:27:40;;;;;;;;;;;;;;;;;;4919087;29;7031;-85
2022/10/28 16:30:06;;;;;;;;;;;;;;;;;;4918897;29;8860;-82
2022/10/28 16:32:40;;;;;;;;;;;;;;;;;;4919911;29;7032;-85
2022/10/28 16:35:25;;;;;;;;;;;;;;;;;;4924409;29;8781;-83
2022/10/28 16:37:51;;;;;;;;;;;;;;;;;;4921291;29;7073;-86
2022/10/28 16:40:17;;;;;;;;;;;;;;;;;;4940103;29;8520;-87
2022/10/28 16:42:45;;;;;;;;;;;;;;;;;;4937367;29;8845;-87
2022/10/28 16:45:14;;;;;;;;;;;;;;;;;;4939549;29;7212;-84
2022/10/28 16:47:40;;;;;;;;;;;;;;;;;;4942809;29;7224;-87
2022/10/28 16:50:05;;;;;;;;;;;;;;;;;;4941510;29;8409;-87
2022/10/28 16:52:32;;;;;;;;;;;;;;;;;;4941832;29;7253;-87
2022/10/28 16:54:58;;;;;;;;;;;;;;;;;;4940750;29;8935;-86
2022/10/28 16:57:24;;;;;;;;;;;;;;;;;;4940802;29;7049;-87
2022/10/28 16:59:49;;;;;;;;;;;;;;;;;;4940699;29;7069;-88
2022/10/28 17:02:26;;;;;;;;;;;;;;;;;;4940876;29;7028;-88
2022/10/28 17:04:52;;;;;;;;;;;;;;;;;;4938471;29;7266;-86
2022/10/28 17:07:18;;;;;;;;;;;;;;;;;;4938684;29;7014;-87
2022/10/28 17:09:44;;;;;;;;;;;;;;;;;;4939531;29;7177;-84
2022/10/28 17:12:14;;;;;;;;;;;;;;;;;;4944237;29;8667;-81
2022/10/28 17:14:39;;;;;;;;;;;;;;;;;;4945245;29;8523;-81
2022/10/28 17:17:05;;;;;;;;;;;;;;;;;;4940525;29;7105;-84
2022/10/28 17:19:30;;;;;;;;;;;;;;;;;;4941698;29;8368;-86
2022/10/28 17:21:55;;;;;;;;;;;;;;;;;;4939948;29;8409;-85
2022/10/28 17:24:21;;;;;;;;;;;;;;;;;;4940859;29;7085;-85
2022/10/28 17:26:47;;;;;;;;;;;;;;;;;;4940421;29;7172;-88
2022/10/28 17:29:12;;;;;;;;;;;;;;;;;;4940042;29;8502;-82
2022/10/28 17:31:38;;;;;;;;;;;;;;;;;;4938425;29;7161;-86
2022/10/28 17:34:03;;;;;;;;;;;;;;;;;;4937856;29;7125;-87
2022/10/28 17:36:29;;;;;;;;;;;;;;;;;;4940045;29;8560;-85